sensor_id;sensor_type;location;lat;lon;timestamp;pressure;altitude;pressure_sealevel;temperature;humidity
76122;BME280;70471;53.200;6.080;2024-03-23T00:57:22;100974.78;;;18.62;40.68
76122;BME280;70471;53.200;6.080;2024-03-23T01:02:13;100966.56;;;18.57;40.73
76122;BME280;70471;53.200;6.080;2024-03-23T01:07:05;100957.13;;;18.63;40.60
76122;BME280;70471;53.200;6.080;2024-03-23T01:11:56;100947.47;;;18.61;40.70
76122;BME280;70471;53.200;6.080;2024-03-23T01:16:49;100947.19;;;18.62;40.48
76122;BME280;70471;53.200;6.080;2024-03-23T01:21:41;100938.34;;;18.65;40.42
76122;BME280;70471;53.200;6.080;2024-03-23T01:26:33;100936.41;;;18.66;40.48
76122;BME280;70471;53.200;6.080;2024-03-23T01:31:25;100926.72;;;18.68;40.26
76122;BME280;70471;53.200;6.080;2024-03-23T01:36:18;100928.94;;;18.66;40.58
76122;BME280;70471;53.200;6.080;2024-03-23T01:41:10;100923.63;;;18.75;40.40
76122;BME280;70471;53.200;6.080;2024-03-23T01:46:01;100915.09;;;18.71;40.19
76122;BME280;70471;53.200;6.080;2024-03-23T01:50:53;100902.91;;;18.78;39.99
76122;BME280;70471;53.200;6.080;2024-03-23T01:55:46;100903.47;;;18.74;40.26
76122;BME280;70471;53.200;6.080;2024-03-23T02:00:38;100877.88;;;18.69;40.03
76122;BME280;70471;53.200;6.080;2024-03-23T02:05:30;100895.16;;;18.80;39.91
76122;BME280;70471;53.200;6.080;2024-03-23T02:10:22;100886.88;;;18.85;39.54
76122;BME280;70471;53.200;6.080;2024-03-23T02:15:15;100885.19;;;18.84;39.99
76122;BME280;70471;53.200;6.080;2024-03-23T02:20:07;100881.56;;;18.88;39.75
76122;BME280;70471;53.200;6.080;2024-03-23T02:25:01;100871.34;;;18.89;39.40
76122;BME280;70471;53.200;6.080;2024-03-23T02:29:53;100868.00;;;18.92;39.77
76122;BME280;70471;53.200;6.080;2024-03-23T02:34:45;100864.94;;;18.93;39.37
76122;BME280;70471;53.200;6.080;2024-03-23T02:39:36;100856.94;;;18.92;39.50
76122;BME280;70471;53.200;6.080;2024-03-23T02:44:29;100850.56;;;18.97;39.66
76122;BME280;70471;53.200;6.080;2024-03-23T02:49:21;100843.16;;;18.92;39.23
76122;BME280;70471;53.200;6.080;2024-03-23T02:54:13;100833.69;;;18.98;39.16
76122;BME280;70471;53.200;6.080;2024-03-23T02:59:04;100837.03;;;18.95;38.94
76122;BME280;70471;53.200;6.080;2024-03-23T03:03:57;100833.41;;;19.00;38.84
76122;BME280;70471;53.200;6.080;2024-03-23T03:08:49;100823.75;;;18.97;38.81
76122;BME280;70471;53.200;6.080;2024-03-23T03:13:41;100825.03;;;19.05;39.22
76122;BME280;70471;53.200;6.080;2024-03-23T03:18:32;100810.72;;;19.03;39.16
76122;BME280;70471;53.200;6.080;2024-03-23T03:23:25;100810.34;;;19.09;38.67
76122;BME280;70471;53.200;6.080;2024-03-23T03:28:17;100808.19;;;19.06;38.84
76122;BME280;70471;53.200;6.080;2024-03-23T03:33:09;100805.94;;;19.08;38.84
76122;BME280;70471;53.200;6.080;2024-03-23T03:38:00;100798.50;;;19.09;39.02
76122;BME280;70471;53.200;6.080;2024-03-23T03:42:53;100792.69;;;19.10;38.88
76122;BME280;70471;53.200;6.080;2024-03-23T03:47:45;100781.34;;;19.12;38.39
76122;BME280;70471;53.200;6.080;2024-03-23T03:52:37;100784.31;;;19.16;38.68
76122;BME280;70471;53.200;6.080;2024-03-23T03:57:28;100780.44;;;19.17;38.59
76122;BME280;70471;53.200;6.080;2024-03-23T04:02:21;100776.03;;;19.16;38.55
76122;BME280;70471;53.200;6.080;2024-03-23T04:07:13;100780.16;;;19.18;38.47
76122;BME280;70471;53.200;6.080;2024-03-23T04:12:06;100757.81;;;19.15;38.38
76122;BME280;70471;53.200;6.080;2024-03-23T04:16:57;100769.31;;;19.22;38.03
76122;BME280;70471;53.200;6.080;2024-03-23T04:21:50;100764.09;;;19.20;37.93
76122;BME280;70471;53.200;6.080;2024-03-23T04:26:42;100767.59;;;19.26;38.20
76122;BME280;70471;53.200;6.080;2024-03-23T04:31:34;100766.25;;;19.23;37.95
76122;BME280;70471;53.200;6.080;2024-03-23T04:36:26;100748.25;;;19.26;38.07
76122;BME280;70471;53.200;6.080;2024-03-23T04:41:19;100751.84;;;19.26;38.17
76122;BME280;70471;53.200;6.080;2024-03-23T04:46:11;100753.72;;;19.31;38.08
76122;BME280;70471;53.200;6.080;2024-03-23T04:51:03;100753.78;;;19.26;37.81
76122;BME280;70471;53.200;6.080;2024-03-23T04:55:55;100741.53;;;19.32;38.11
76122;BME280;70471;53.200;6.080;2024-03-23T05:00:48;100734.16;;;19.27;38.13
76122;BME280;70471;53.200;6.080;2024-03-23T05:05:40;100738.47;;;19.34;37.95
76122;BME280;70471;53.200;6.080;2024-03-23T05:10:31;100728.03;;;19.30;38.07
76122;BME280;70471;53.200;6.080;2024-03-23T05:15:23;100715.56;;;19.33;37.62
76122;BME280;70471;53.200;6.080;2024-03-23T05:20:17;100730.19;;;19.34;37.76
76122;BME280;70471;53.200;6.080;2024-03-23T05:25:09;100731.53;;;19.36;37.29
76122;BME280;70471;53.200;6.080;2024-03-23T05:30:02;100743.69;;;19.35;37.34
76122;BME280;70471;53.200;6.080;2024-03-23T05:34:54;100759.38;;;19.40;37.56
76122;BME280;70471;53.200;6.080;2024-03-23T05:39:48;100753.34;;;19.38;37.20
76122;BME280;70471;53.200;6.080;2024-03-23T05:44:40;100729.53;;;19.42;37.25
76122;BME280;70471;53.200;6.080;2024-03-23T05:49:32;100728.19;;;19.39;37.21
76122;BME280;70471;53.200;6.080;2024-03-23T05:54:24;100725.94;;;19.41;37.59
76122;BME280;70471;53.200;6.080;2024-03-23T05:59:17;100719.28;;;19.42;37.55
76122;BME280;70471;53.200;6.080;2024-03-23T06:04:09;100723.72;;;19.43;37.13
76122;BME280;70471;53.200;6.080;2024-03-23T06:09:00;100733.63;;;19.44;37.24
76122;BME280;70471;53.200;6.080;2024-03-23T06:13:52;100732.22;;;19.47;37.41
76122;BME280;70471;53.200;6.080;2024-03-23T06:18:45;100729.44;;;19.47;37.31
76122;BME280;70471;53.200;6.080;2024-03-23T06:23:36;100728.84;;;19.50;37.34
76122;BME280;70471;53.200;6.080;2024-03-23T06:28:28;100730.16;;;19.53;36.85
76122;BME280;70471;53.200;6.080;2024-03-23T06:33:20;100731.06;;;19.48;36.72
76122;BME280;70471;53.200;6.080;2024-03-23T06:38:13;100723.03;;;19.52;37.08
76122;BME280;70471;53.200;6.080;2024-03-23T06:43:04;100731.66;;;19.45;36.70
76122;BME280;70471;53.200;6.080;2024-03-23T06:47:57;100719.72;;;19.50;36.91
76122;BME280;70471;53.200;6.080;2024-03-23T06:52:49;100713.97;;;19.46;37.21
76122;BME280;70471;53.200;6.080;2024-03-23T06:57:42;100708.97;;;19.48;36.54
76122;BME280;70471;53.200;6.080;2024-03-23T07:02:34;100710.63;;;19.49;36.90
76122;BME280;70471;53.200;6.080;2024-03-23T07:07:26;100706.81;;;19.45;36.71
76122;BME280;70471;53.200;6.080;2024-03-23T07:12:18;100703.97;;;19.50;36.82
76122;BME280;70471;53.200;6.080;2024-03-23T07:17:11;100709.34;;;19.41;37.25
76122;BME280;70471;53.200;6.080;2024-03-23T07:22:03;100686.94;;;19.43;36.86
76122;BME280;70471;53.200;6.080;2024-03-23T07:26:55;100687.78;;;19.43;37.83
76122;BME280;70471;53.200;6.080;2024-03-23T07:31:48;100699.25;;;19.51;36.97
76122;BME280;70471;53.200;6.080;2024-03-23T07:36:41;100707.75;;;19.54;36.86
76122;BME280;70471;53.200;6.080;2024-03-23T07:41:33;100708.97;;;19.67;36.85
76122;BME280;70471;53.200;6.080;2024-03-23T07:46:25;100694.47;;;19.75;36.88
76122;BME280;70471;53.200;6.080;2024-03-23T07:51:18;100694.28;;;19.86;36.65
76122;BME280;70471;53.200;6.080;2024-03-23T07:56:11;100682.81;;;19.92;37.07
76122;BME280;70471;53.200;6.080;2024-03-23T08:01:07;100672.00;;;19.96;36.74
76122;BME280;70471;53.200;6.080;2024-03-23T08:06:06;100670.75;;;20.02;37.30
76122;BME280;70471;53.200;6.080;2024-03-23T08:10:58;100664.59;;;20.05;36.68
76122;BME280;70471;53.200;6.080;2024-03-23T08:15:51;100668.72;;;20.08;37.04
76122;BME280;70471;53.200;6.080;2024-03-23T08:20:43;100664.28;;;20.07;36.71
76122;BME280;70471;53.200;6.080;2024-03-23T08:25:35;100643.72;;;19.99;36.90
76122;BME280;70471;53.200;6.080;2024-03-23T08:30:28;100656.50;;;19.95;37.21
76122;BME280;70471;53.200;6.080;2024-03-23T08:35:21;100658.03;;;19.87;37.21
76122;BME280;70471;53.200;6.080;2024-03-23T08:40:12;100658.84;;;19.88;37.77
76122;BME280;70471;53.200;6.080;2024-03-23T08:45:05;100648.81;;;19.92;37.38
76122;BME280;70471;53.200;6.080;2024-03-23T08:49:58;100650.66;;;19.82;37.89
76122;BME280;70471;53.200;6.080;2024-03-23T08:54:51;100655.78;;;19.75;38.18
76122;BME280;70471;53.200;6.080;2024-03-23T08:59:42;100662.41;;;19.74;38.18
76122;BME280;70471;53.200;6.080;2024-03-23T09:04:34;100661.06;;;19.72;38.03
76122;BME280;70471;53.200;6.080;2024-03-23T09:09:26;100663.22;;;19.75;37.67
76122;BME280;70471;53.200;6.080;2024-03-23T09:14:19;100669.59;;;19.75;38.22
76122;BME280;70471;53.200;6.080;2024-03-23T09:19:11;100683.19;;;19.72;37.79
76122;BME280;70471;53.200;6.080;2024-03-23T09:24:02;100678.25;;;19.69;38.49
76122;BME280;70471;53.200;6.080;2024-03-23T09:28:54;100663.63;;;19.68;37.73
76122;BME280;70471;53.200;6.080;2024-03-23T09:33:48;100660.16;;;19.76;38.20
76122;BME280;70471;53.200;6.080;2024-03-23T09:38:40;100649.63;;;19.78;38.17
76122;BME280;70471;53.200;6.080;2024-03-23T09:43:32;100647.28;;;19.86;37.64
76122;BME280;70471;53.200;6.080;2024-03-23T09:48:24;100645.72;;;19.79;37.88
76122;BME280;70471;53.200;6.080;2024-03-23T09:53:17;100640.41;;;19.69;38.67
76122;BME280;70471;53.200;6.080;2024-03-23T09:58:12;100631.66;;;19.62;38.66
76122;BME280;70471;53.200;6.080;2024-03-23T10:03:05;100640.56;;;19.59;38.60
76122;BME280;70471;53.200;6.080;2024-03-23T10:07:58;100645.47;;;19.62;38.66
76122;BME280;70471;53.200;6.080;2024-03-23T10:12:52;100615.31;;;19.46;38.15
76122;BME280;70471;53.200;6.080;2024-03-23T10:17:43;100623.28;;;19.67;38.02
76122;BME280;70471;53.200;6.080;2024-03-23T10:22:37;100623.28;;;19.67;38.16
76122;BME280;70471;53.200;6.080;2024-03-23T10:27:29;100643.88;;;19.61;38.35
76122;BME280;70471;53.200;6.080;2024-03-23T10:32:22;100642.59;;;19.53;38.60
76122;BME280;70471;53.200;6.080;2024-03-23T10:37:13;100645.09;;;19.50;38.28
76122;BME280;70471;53.200;6.080;2024-03-23T10:42:06;100660.97;;;19.44;38.74
76122;BME280;70471;53.200;6.080;2024-03-23T10:46:59;100651.53;;;19.45;38.49
76122;BME280;70471;53.200;6.080;2024-03-23T10:51:52;100647.88;;;19.50;38.62
76122;BME280;70471;53.200;6.080;2024-03-23T10:56:44;100639.97;;;19.62;38.46
76122;BME280;70471;53.200;6.080;2024-03-23T11:01:54;100633.41;;;19.72;38.88
76122;BME280;70471;53.200;6.080;2024-03-23T11:06:45;100623.72;;;19.74;38.91
76122;BME280;70471;53.200;6.080;2024-03-23T11:11:38;100614.50;;;19.79;38.76
76122;BME280;70471;53.200;6.080;2024-03-23T11:16:30;100612.97;;;19.73;38.41
76122;BME280;70471;53.200;6.080;2024-03-23T11:21:53;100629.34;;;19.69;38.37
76122;BME280;70471;53.200;6.080;2024-03-23T11:26:47;100616.63;;;19.68;38.66
76122;BME280;70471;53.200;6.080;2024-03-23T11:31:39;100621.84;;;19.70;38.70
76122;BME280;70471;53.200;6.080;2024-03-23T11:36:36;100624.03;;;19.73;39.17
76122;BME280;70471;53.200;6.080;2024-03-23T11:41:28;100616.34;;;19.83;38.68
76122;BME280;70471;53.200;6.080;2024-03-23T11:46:24;100647.38;;;19.80;38.59
76122;BME280;70471;53.200;6.080;2024-03-23T11:51:16;100630.69;;;19.86;38.63
76122;BME280;70471;53.200;6.080;2024-03-23T11:56:08;100627.31;;;19.89;38.39
76122;BME280;70471;53.200;6.080;2024-03-23T12:01:01;100617.69;;;20.00;38.10
76122;BME280;70471;53.200;6.080;2024-03-23T12:05:58;100611.66;;;19.98;38.69
76122;BME280;70471;53.200;6.080;2024-03-23T12:10:51;100614.13;;;19.99;38.30
76122;BME280;70471;53.200;6.080;2024-03-23T12:15:44;100606.53;;;20.05;38.69
76122;BME280;70471;53.200;6.080;2024-03-23T12:20:36;100609.09;;;20.01;38.72
76122;BME280;70471;53.200;6.080;2024-03-23T12:25:30;100622.00;;;20.06;38.38
76122;BME280;70471;53.200;6.080;2024-03-23T12:30:23;100607.25;;;20.11;38.40
76122;BME280;70471;53.200;6.080;2024-03-23T12:35:15;100607.44;;;20.14;38.42
76122;BME280;70471;53.200;6.080;2024-03-23T12:40:08;100615.84;;;20.09;38.14
76122;BME280;70471;53.200;6.080;2024-03-23T12:45:02;100609.72;;;20.12;38.46
76122;BME280;70471;53.200;6.080;2024-03-23T12:49:56;100607.06;;;20.07;38.10
76122;BME280;70471;53.200;6.080;2024-03-23T12:54:48;100591.06;;;20.04;37.99
76122;BME280;70471;53.200;6.080;2024-03-23T12:59:41;100603.75;;;20.19;38.21
76122;BME280;70471;53.200;6.080;2024-03-23T13:04:35;100612.91;;;20.19;38.07
76122;BME280;70471;53.200;6.080;2024-03-23T13:09:26;100618.94;;;20.22;38.13
76122;BME280;70471;53.200;6.080;2024-03-23T13:14:18;100628.97;;;20.17;37.39
76122;BME280;70471;53.200;6.080;2024-03-23T13:19:11;100628.75;;;20.00;36.42
76122;BME280;70471;53.200;6.080;2024-03-23T13:24:06;100608.88;;;19.98;36.90
76122;BME280;70471;53.200;6.080;2024-03-23T13:28:59;100605.69;;;19.91;37.26
76122;BME280;70471;53.200;6.080;2024-03-23T13:33:51;100624.66;;;19.83;37.94
76122;BME280;70471;53.200;6.080;2024-03-23T13:38:43;100602.53;;;19.83;37.80
76122;BME280;70471;53.200;6.080;2024-03-23T13:43:36;100621.59;;;19.85;38.42
76122;BME280;70471;53.200;6.080;2024-03-23T13:48:27;100625.28;;;19.94;38.09
76122;BME280;70471;53.200;6.080;2024-03-23T13:53:20;100609.28;;;20.05;38.30
76122;BME280;70471;53.200;6.080;2024-03-23T13:58:15;100599.88;;;20.06;38.62
76122;BME280;70471;53.200;6.080;2024-03-23T14:03:09;100597.00;;;20.25;37.86
76122;BME280;70471;53.200;6.080;2024-03-23T14:08:02;100589.72;;;20.29;38.44
76122;BME280;70471;53.200;6.080;2024-03-23T14:12:54;100587.28;;;20.28;38.46
76122;BME280;70471;53.200;6.080;2024-03-23T14:17:46;100576.19;;;20.42;37.69
76122;BME280;70471;53.200;6.080;2024-03-23T14:22:40;100587.34;;;20.50;38.22
76122;BME280;70471;53.200;6.080;2024-03-23T14:27:33;100576.59;;;20.49;37.91
76122;BME280;70471;53.200;6.080;2024-03-23T14:32:28;100571.41;;;20.33;38.32
76122;BME280;70471;53.200;6.080;2024-03-23T14:37:24;100565.84;;;20.33;38.00
76122;BME280;70471;53.200;6.080;2024-03-23T14:42:18;100568.91;;;20.46;37.58
76122;BME280;70471;53.200;6.080;2024-03-23T14:47:10;100582.94;;;20.49;38.19
76122;BME280;70471;53.200;6.080;2024-03-23T14:52:04;100567.25;;;20.59;37.79
76122;BME280;70471;53.200;6.080;2024-03-23T14:56:58;100556.03;;;20.64;37.84
76122;BME280;70471;53.200;6.080;2024-03-23T15:01:52;100556.34;;;20.62;37.86
76122;BME280;70471;53.200;6.080;2024-03-23T15:06:44;100555.63;;;20.70;37.69
76122;BME280;70471;53.200;6.080;2024-03-23T15:11:40;100555.69;;;20.79;37.27
76122;BME280;70471;53.200;6.080;2024-03-23T15:16:32;100544.00;;;20.82;36.83
76122;BME280;70471;53.200;6.080;2024-03-23T15:21:25;100549.03;;;20.80;36.93
76122;BME280;70471;53.200;6.080;2024-03-23T15:26:17;100543.41;;;20.71;36.54
76122;BME280;70471;53.200;6.080;2024-03-23T15:31:09;100546.50;;;20.70;36.54
76122;BME280;70471;53.200;6.080;2024-03-23T15:36:01;100538.59;;;20.77;36.55
76122;BME280;70471;53.200;6.080;2024-03-23T15:40:55;100536.00;;;20.81;36.91
76122;BME280;70471;53.200;6.080;2024-03-23T15:45:54;100536.81;;;20.81;36.79
76122;BME280;70471;53.200;6.080;2024-03-23T15:50:50;100536.94;;;20.76;36.76
76122;BME280;70471;53.200;6.080;2024-03-23T15:55:42;100538.19;;;20.70;36.32
76122;BME280;70471;53.200;6.080;2024-03-23T16:00:35;100532.34;;;20.71;36.31
76122;BME280;70471;53.200;6.080;2024-03-23T16:05:27;100531.91;;;20.78;36.22
76122;BME280;70471;53.200;6.080;2024-03-23T16:10:19;100523.22;;;20.71;36.28
76122;BME280;70471;53.200;6.080;2024-03-23T16:15:11;100514.03;;;20.62;36.34
76122;BME280;70471;53.200;6.080;2024-03-23T16:20:05;100515.97;;;20.61;36.16
76122;BME280;70471;53.200;6.080;2024-03-23T16:24:59;100516.91;;;20.57;36.28
76122;BME280;70471;53.200;6.080;2024-03-23T16:29:51;100511.88;;;20.59;36.14
76122;BME280;70471;53.200;6.080;2024-03-23T16:34:42;100514.66;;;20.59;36.72
76122;BME280;70471;53.200;6.080;2024-03-23T16:39:35;100510.63;;;20.65;36.43
76122;BME280;70471;53.200;6.080;2024-03-23T16:44:27;100506.53;;;20.62;36.59
76122;BME280;70471;53.200;6.080;2024-03-23T16:49:19;100504.47;;;20.68;35.99
76122;BME280;70471;53.200;6.080;2024-03-23T16:54:11;100501.00;;;20.62;36.41
76122;BME280;70471;53.200;6.080;2024-03-23T16:59:04;100491.88;;;20.62;36.54
76122;BME280;70471;53.200;6.080;2024-03-23T17:03:55;100489.75;;;20.59;36.19
76122;BME280;70471;53.200;6.080;2024-03-23T17:08:48;100494.16;;;20.60;36.30
76122;BME280;70471;53.200;6.080;2024-03-23T17:13:40;100492.00;;;20.57;36.63
76122;BME280;70471;53.200;6.080;2024-03-23T17:18:33;100493.25;;;20.50;36.35
76122;BME280;70471;53.200;6.080;2024-03-23T17:23:25;100497.78;;;20.46;36.16
76122;BME280;70471;53.200;6.080;2024-03-23T17:28:17;100496.16;;;20.45;36.65
76122;BME280;70471;53.200;6.080;2024-03-23T17:33:09;100479.97;;;20.38;36.25
76122;BME280;70471;53.200;6.080;2024-03-23T17:38:04;100482.31;;;20.45;36.27
76122;BME280;70471;53.200;6.080;2024-03-23T17:42:58;100464.81;;;20.36;36.29
76122;BME280;70471;53.200;6.080;2024-03-23T17:47:50;100482.81;;;20.47;36.26
76122;BME280;70471;53.200;6.080;2024-03-23T17:52:43;100482.19;;;20.50;36.40
76122;BME280;70471;53.200;6.080;2024-03-23T17:57:37;100476.25;;;20.43;37.33
76122;BME280;70471;53.200;6.080;2024-03-23T18:02:30;100475.00;;;20.49;36.70
76122;BME280;70471;53.200;6.080;2024-03-23T18:07:22;100481.16;;;20.46;36.39
76122;BME280;70471;53.200;6.080;2024-03-23T18:12:14;100479.41;;;20.50;36.95
76122;BME280;70471;53.200;6.080;2024-03-23T18:17:09;100473.06;;;20.50;36.57
76122;BME280;70471;53.200;6.080;2024-03-23T18:22:01;100464.69;;;20.41;36.68
76122;BME280;70471;53.200;6.080;2024-03-23T18:26:53;100467.16;;;20.43;36.71
76122;BME280;70471;53.200;6.080;2024-03-23T18:31:46;100446.34;;;20.31;36.94
76122;BME280;70471;53.200;6.080;2024-03-23T18:36:40;100457.19;;;20.42;36.91
76122;BME280;70471;53.200;6.080;2024-03-23T18:41:32;100448.22;;;20.36;36.62
76122;BME280;70471;53.200;6.080;2024-03-23T18:46:25;100437.56;;;20.29;36.54
76122;BME280;70471;53.200;6.080;2024-03-23T18:51:17;100441.38;;;20.19;36.45
76122;BME280;70471;53.200;6.080;2024-03-23T18:56:12;100454.78;;;20.26;36.68
76122;BME280;70471;53.200;6.080;2024-03-23T19:01:05;100452.13;;;20.21;36.46
76122;BME280;70471;53.200;6.080;2024-03-23T19:06:00;100447.22;;;20.18;37.08
76122;BME280;70471;53.200;6.080;2024-03-23T19:10:53;100436.06;;;20.09;36.73
76122;BME280;70471;53.200;6.080;2024-03-23T19:15:47;100443.34;;;20.05;36.71
76122;BME280;70471;53.200;6.080;2024-03-23T19:20:39;100440.72;;;20.00;37.26
76122;BME280;70471;53.200;6.080;2024-03-23T19:25:32;100438.97;;;20.04;37.43
76122;BME280;70471;53.200;6.080;2024-03-23T19:30:25;100437.00;;;20.05;37.49
76122;BME280;70471;53.200;6.080;2024-03-23T19:35:19;100431.03;;;20.11;37.42
76122;BME280;70471;53.200;6.080;2024-03-23T19:40:11;100428.59;;;20.10;37.64
76122;BME280;70471;53.200;6.080;2024-03-23T19:45:04;100433.72;;;20.16;37.77
76122;BME280;70471;53.200;6.080;2024-03-23T19:49:57;100415.34;;;20.20;37.88
76122;BME280;70471;53.200;6.080;2024-03-23T19:54:50;100411.94;;;20.24;37.01
76122;BME280;70471;53.200;6.080;2024-03-23T19:59:42;100417.88;;;20.31;37.47
76122;BME280;70471;53.200;6.080;2024-03-23T20:04:34;100411.13;;;20.37;37.44
76122;BME280;70471;53.200;6.080;2024-03-23T20:09:26;100419.09;;;20.38;37.44
76122;BME280;70471;53.200;6.080;2024-03-23T20:14:20;100407.59;;;20.45;36.88
76122;BME280;70471;53.200;6.080;2024-03-23T20:19:12;100408.59;;;20.49;36.75
76122;BME280;70471;53.200;6.080;2024-03-23T20:24:05;100397.53;;;20.49;36.59
76122;BME280;70471;53.200;6.080;2024-03-23T20:28:58;100392.63;;;20.46;36.94
76122;BME280;70471;53.200;6.080;2024-03-23T20:33:51;100395.91;;;20.48;37.36
76122;BME280;70471;53.200;6.080;2024-03-23T20:38:44;100387.38;;;20.45;37.57
76122;BME280;70471;53.200;6.080;2024-03-23T20:43:37;100386.09;;;20.42;37.33
76122;BME280;70471;53.200;6.080;2024-03-23T20:48:35;100375.16;;;20.37;36.88
76122;BME280;70471;53.200;6.080;2024-03-23T20:53:32;100367.50;;;20.34;37.16
76122;BME280;70471;53.200;6.080;2024-03-23T20:58:25;100361.53;;;20.27;37.11
76122;BME280;70471;53.200;6.080;2024-03-23T21:03:18;100361.84;;;20.25;37.00
76122;BME280;70471;53.200;6.080;2024-03-23T21:08:11;100349.75;;;20.21;37.20
76122;BME280;70471;53.200;6.080;2024-03-23T21:13:05;100348.16;;;20.20;37.18
76122;BME280;70471;53.200;6.080;2024-03-23T21:17:57;100347.44;;;20.14;36.91
76122;BME280;70471;53.200;6.080;2024-03-23T21:22:50;100337.22;;;20.15;37.00
76122;BME280;70471;53.200;6.080;2024-03-23T21:27:43;100331.69;;;20.15;36.59
76122;BME280;70471;53.200;6.080;2024-03-23T21:32:36;100321.44;;;20.15;36.47
76122;BME280;70471;53.200;6.080;2024-03-23T21:37:29;100318.16;;;20.13;36.22
76122;BME280;70471;53.200;6.080;2024-03-23T21:42:22;100297.97;;;20.13;36.68
76122;BME280;70471;53.200;6.080;2024-03-23T21:47:14;100285.41;;;20.07;36.38
76122;BME280;70471;53.200;6.080;2024-03-23T21:52:07;100276.28;;;20.06;36.14
76122;BME280;70471;53.200;6.080;2024-03-23T21:56:59;100255.59;;;20.04;35.76
76122;BME280;70471;53.200;6.080;2024-03-23T22:01:51;100258.19;;;20.00;36.04
76122;BME280;70471;53.200;6.080;2024-03-23T22:06:44;100248.59;;;19.97;36.09
76122;BME280;70471;53.200;6.080;2024-03-23T22:11:38;100235.72;;;19.93;36.10
76122;BME280;70471;53.200;6.080;2024-03-23T22:16:30;100261.22;;;19.90;35.95
76122;BME280;70471;53.200;6.080;2024-03-23T22:21:23;100272.91;;;19.87;36.03
76122;BME280;70471;53.200;6.080;2024-03-23T22:26:15;100251.75;;;19.82;35.51
76122;BME280;70471;53.200;6.080;2024-03-23T22:31:09;100224.72;;;19.79;35.75
76122;BME280;70471;53.200;6.080;2024-03-23T22:36:02;100220.94;;;19.75;35.44
76122;BME280;70471;53.200;6.080;2024-03-23T22:40:55;100206.94;;;19.71;35.43
76122;BME280;70471;53.200;6.080;2024-03-23T22:45:53;100194.88;;;19.67;35.47
76122;BME280;70471;53.200;6.080;2024-03-23T22:50:48;100189.16;;;19.63;35.86
76122;BME280;70471;53.200;6.080;2024-03-23T22:55:41;100184.28;;;19.60;35.71
76122;BME280;70471;53.200;6.080;2024-03-23T23:00:38;100168.09;;;19.54;35.72
76122;BME280;70471;53.200;6.080;2024-03-23T23:05:31;100137.97;;;19.43;35.79
76122;BME280;70471;53.200;6.080;2024-03-23T23:10:25;100142.19;;;19.41;35.77
76122;BME280;70471;53.200;6.080;2024-03-23T23:15:18;100150.66;;;19.44;35.46
76122;BME280;70471;53.200;6.080;2024-03-23T23:20:11;100154.03;;;19.41;35.94
76122;BME280;70471;53.200;6.080;2024-03-23T23:25:04;100157.41;;;19.38;35.98
76122;BME280;70471;53.200;6.080;2024-03-23T23:29:57;100149.75;;;19.35;35.70
76122;BME280;70471;53.200;6.080;2024-03-23T23:34:50;100139.34;;;19.32;35.58
76122;BME280;70471;53.200;6.080;2024-03-23T23:39:43;100132.50;;;19.29;35.46
76122;BME280;70471;53.200;6.080;2024-03-23T23:44:35;100121.78;;;19.28;35.45
76122;BME280;70471;53.200;6.080;2024-03-23T23:49:30;100101.81;;;19.31;35.77
76122;BME280;70471;53.200;6.080;2024-03-23T23:54:22;100110.91;;;19.32;35.74
76122;BME280;70471;53.200;6.080;2024-03-23T23:59:14;100094.41;;;19.18;35.74
